Time;durP1;ratioP1;P1;durP2;ratioP2;P2;SDS_P1;SDS_P2;PMS_P1;PMS_P2;Temp;Humidity;BMP_temperature;BMP_pressure;BME280_temperature;BME280_humidity;BME280_pressure;Samples;Min_cycle;Max_cycle;Signal;HPM_P1;HPM_P2
2022/10/28 00:01:03;;;;;;;9.68;4.15;;;;;;;16.38;74.15;101685.34;5083488;28;20049;-66
2022/10/28 00:03:31;;;;;;;10.52;5.10;;;;;;;16.37;74.20;101688.31;5084556;28;20063;-66
2022/10/28 00:06:03;;;;;;;9.57;4.65;;;;;;;16.37;74.21;101685.59;5084023;28;20072;-66
2022/10/28 00:08:31;;;;;;;9.75;5.25;;;;;;;16.36;74.12;101683.94;5084730;28;20074;-66
2022/10/28 00:11:07;;;;;;;12.77;4.97;;;;;;;16.36;73.94;101681.22;5084212;28;20060;-66
2022/10/28 00:13:35;;;;;;;9.57;4.03;;;;;;;16.34;74.08;101681.47;5089694;28;20052;-66
2022/10/28 00:16:07;;;;;;;9.52;5.28;;;;;;;16.34;73.92;101691.50;5094239;28;20045;-66
2022/10/28 00:18:35;;;;;;;11.70;3.88;;;;;;;16.30;73.92;101685.72;5084332;28;20506;-66
2022/10/28 00:21:05;;;;;;;9.55;4.70;;;;;;;16.31;73.91;101679.25;5083862;28;20048;-66
2022/10/28 00:23:33;;;;;;;8.45;4.70;;;;;;;16.31;73.97;101691.97;5084566;28;20116;-66
2022/10/28 00:26:06;;;;;;;10.32;4.38;;;;;;;16.30;73.78;101684.91;5084425;28;20063;-66
2022/10/28 00:28:34;;;;;;;10.57;4.65;;;;;;;16.31;73.79;101683.84;5084552;28;20050;-66
2022/10/28 00:31:08;;;;;;;8.20;4.35;;;;;;;16.28;73.83;101685.97;5083486;28;20064;-66
2022/10/28 00:33:36;;;;;;;7.93;4.93;;;;;;;16.28;73.74;101685.16;5084496;28;20068;-66
2022/10/28 00:36:08;;;;;;;7.50;4.20;;;;;;;16.27;73.63;101678.06;5083872;28;20063;-66
2022/10/28 00:38:36;;;;;;;8.43;4.47;;;;;;;16.26;73.65;101679.97;5084415;28;20048;-66
2022/10/28 00:41:04;;;;;;;11.63;4.82;;;;;;;16.26;73.76;101682.66;5084228;28;20060;-66
2022/10/28 00:43:34;;;;;;;10.32;4.00;;;;;;;16.26;73.57;101679.13;5087532;28;20044;-66
2022/10/28 00:46:02;;;;;;;7.88;4.60;;;;;;;16.25;73.84;101680.19;5095314;28;20048;-66
2022/10/28 00:48:31;;;;;;;5.85;3.88;;;;;;;16.25;73.71;101686.44;5083920;28;20052;-66
2022/10/28 00:50:59;;;;;;;14.90;4.88;;;;;;;16.24;73.61;101668.53;5084302;28;20056;-66
2022/10/28 00:53:31;;;;;;;9.38;4.10;;;;;;;16.23;73.63;101671.47;5087622;28;20046;-66
2022/10/28 00:56:01;;;;;;;9.18;4.70;;;;;;;16.22;73.51;101667.13;5089887;28;20062;-66
2022/10/28 00:58:29;;;;;;;8.55;4.07;;;;;;;16.14;73.48;101651.22;5090760;28;20055;-66
2022/10/28 01:00:57;;;;;;;6.80;4.00;;;;;;;16.20;73.49;101659.22;5085627;28;20063;-66
2022/10/28 01:03:25;;;;;;;12.70;4.10;;;;;;;16.19;73.57;101652.16;5087482;28;20052;-66
2022/10/28 01:05:55;;;;;;;9.90;4.75;;;;;;;16.19;73.43;101651.31;5087053;28;20074;-66
2022/10/28 01:08:22;;;;;;;9.63;4.85;;;;;;;16.18;73.52;101649.66;5087621;28;20049;-66
2022/10/28 01:11:16;;;;;;;10.23;4.63;;;;;;;16.17;73.41;101648.84;5087452;28;20055;-66
2022/10/28 01:13:56;;;;;;;11.45;4.60;;;;;;;16.16;73.55;101646.38;5080071;28;20059;-66
2022/10/28 01:16:33;;;;;;;8.45;4.35;;;;;;;16.16;73.44;101651.78;5091916;28;20052;-67
2022/10/28 01:19:41;;;;;;;10.05;5.47;;;;;;;16.14;73.41;101648.50;5087112;28;20052;-66
2022/10/28 01:22:16;;;;;;;;;;;;;;;16.13;73.46;101641.44;5088007;28;20052;-66
2022/10/28 01:25:11;;;;;;;7.60;4.20;;;;;;;16.12;73.49;101646.03;5087018;28;20353;-66
2022/10/28 01:28:06;;;;;;;7.97;4.40;;;;;;;16.10;73.32;101641.91;5087433;28;20052;-65
2022/10/28 01:30:47;;;;;;;7.78;4.43;;;;;;;16.09;73.41;101637.53;5086215;28;20048;-66
2022/10/28 01:33:23;;;;;;;10.00;4.82;;;;;;;16.08;73.48;101638.59;5086996;28;20050;-66
2022/10/28 01:35:55;;;;;;;8.32;5.20;;;;;;;16.08;73.45;101634.00;5086671;28;20056;-66
2022/10/28 01:38:31;;;;;;;7.72;4.30;;;;;;;16.07;73.30;101632.34;5087336;28;20057;-66
2022/10/28 01:41:08;;;;;;;7.30;4.38;;;;;;;16.06;73.26;101632.59;5086709;28;20053;-66
2022/10/28 01:43:41;;;;;;;;;;;;;;;16.06;73.36;101630.72;5087387;28;20059;-66
2022/10/28 01:46:15;;;;;;;11.90;4.25;;;;;;;16.06;73.19;101628.00;5098164;28;19931;-66
2022/10/28 01:48:50;;;;;;;6.85;4.00;;;;;;;16.05;73.24;101628.25;5086962;28;20053;-66
2022/10/28 01:51:25;;;;;;;9.27;3.92;;;;;;;16.04;73.25;101632.84;5086552;28;20045;-66
2022/10/28 01:53:56;;;;;;;12.73;4.95;;;;;;;16.03;73.15;101631.19;5092611;28;20052;-66
2022/10/28 01:56:29;;;;;;;9.13;4.10;;;;;;;16.03;73.18;101639.31;5086793;28;20048;-66
2022/10/28 01:59:00;;;;;;;8.88;3.85;;;;;;;16.03;73.16;101627.66;5086632;28;20048;-66
2022/10/28 02:01:30;;;;;;;6.15;3.70;;;;;;;16.02;72.76;101632.25;5085891;28;20056;-66
2022/10/28 02:04:00;;;;;;;9.30;3.42;;;;;;;16.01;73.07;101627.91;5086009;28;20056;-66
2022/10/28 02:06:31;;;;;;;7.03;3.53;;;;;;;16.00;73.08;101631.66;5086453;28;20059;-66
2022/10/28 02:09:19;;;;;;;9.32;3.88;;;;;;;16.00;73.11;101631.66;5086458;28;20509;-66
2022/10/28 02:12:22;;;;;;;12.85;4.00;;;;;;;16.00;73.00;101633.56;5085498;28;20057;-66
2022/10/28 02:15:33;;;;;;;5.70;3.78;;;;;;;15.99;73.06;101621.06;5093213;28;20056;-66
2022/10/28 02:18:10;;;;;;;7.57;3.25;;;;;;;15.99;72.94;101621.06;5090201;28;20055;-66
2022/10/28 02:20:49;;;;;;;9.02;3.50;;;;;;;15.92;72.90;101616.59;5085561;28;20061;-66
2022/10/28 02:23:32;;;;;;;9.98;4.15;;;;;;;15.99;72.96;101621.06;5086122;28;20429;-66
2022/10/28 02:26:04;;;;;;;8.88;4.03;;;;;;;15.98;72.82;101620.25;5086228;28;20131;-66
2022/10/28 02:28:39;;;;;;;7.00;3.60;;;;;;;15.97;72.91;101615.88;5086210;28;20056;-66
2022/10/28 02:31:17;;;;;;;9.65;4.10;;;;;;;15.98;72.73;101622.13;5104844;28;20125;-66
2022/10/28 02:33:50;;;;;;;9.27;3.47;;;;;;;15.98;72.81;101622.94;5106362;28;20054;-66
2022/10/28 02:36:23;;;;;;;11.00;3.58;;;;;;;15.97;72.74;101624.00;5096908;28;20052;-66
2022/10/28 02:38:54;;;;;;;8.55;3.28;;;;;;;15.96;72.73;101625.06;5086153;28;20061;-66
2022/10/28 02:41:26;;;;;;;9.23;3.50;;;;;;;15.91;72.71;101604.09;5085836;28;20044;-66
2022/10/28 02:43:57;;;;;;;8.05;4.03;;;;;;;15.95;73.01;101613.41;5092379;28;20059;-66
2022/10/28 02:46:28;;;;;;;11.00;3.95;;;;;;;15.96;72.64;101608.81;5093814;28;20059;-66
2022/10/28 02:49:01;;;;;;;6.53;3.63;;;;;;;15.95;72.64;101612.56;5089160;28;20044;-66
2022/10/28 02:51:34;;;;;;;9.80;3.72;;;;;;;15.94;72.61;101611.75;5085435;28;20048;-66
2022/10/28 02:54:06;;;;;;;8.57;3.97;;;;;;;15.95;72.64;101615.28;5091566;28;20132;-66
2022/10/28 02:56:38;;;;;;;6.43;3.58;;;;;;;15.94;72.52;101617.19;5085638;28;20442;-66
2022/10/28 02:59:09;;;;;;;6.35;3.38;;;;;;;15.94;72.70;101608.22;5089581;28;20057;-66
2022/10/28 03:01:37;;;;;;;9.05;3.88;;;;;;;15.94;72.60;101610.94;5105563;28;20054;-66
2022/10/28 03:04:06;;;;;;;7.78;3.13;;;;;;;15.93;72.62;101610.09;5086437;28;20067;-66
2022/10/28 03:06:35;;;;;;;8.18;3.00;;;;;;;15.93;72.62;101609.28;5085670;28;20054;-66
2022/10/28 03:09:03;;;;;;;9.02;3.53;;;;;;;15.92;72.61;101608.47;5085107;28;20521;-66
2022/10/28 03:11:30;;;;;;;7.95;3.53;;;;;;;15.92;72.70;101611.16;5090554;28;20048;-66
2022/10/28 03:13:58;;;;;;;9.20;3.35;;;;;;;15.91;72.60;101604.09;5090927;28;20048;-66
2022/10/28 03:16:26;;;;;;;10.45;3.78;;;;;;;15.90;72.60;101602.44;5084014;28;20068;-66
2022/10/28 03:18:54;;;;;;;6.78;3.78;;;;;;;15.89;72.63;101603.50;5085161;28;20048;-66
2022/10/28 03:21:22;;;;;;;11.90;3.10;;;;;;;15.90;72.69;101601.63;5084578;28;20045;-66
2022/10/28 03:23:51;;;;;;;13.43;4.05;;;;;;;15.89;72.59;101608.09;5084783;28;20059;-66
2022/10/28 03:26:18;;;;;;;10.40;3.38;;;;;;;15.89;72.55;101605.41;5085224;28;20052;-66
2022/10/28 03:28:46;;;;;;;9.15;3.63;;;;;;;15.87;72.74;101610.22;5085122;28;20049;-66
2022/10/28 03:31:15;;;;;;;6.00;3.00;;;;;;;15.87;72.55;101604.81;5084126;28;20056;-66
2022/10/28 03:33:43;;;;;;;8.82;3.78;;;;;;;15.86;72.49;101606.69;5104684;28;20178;-66
2022/10/28 03:36:11;;;;;;;6.13;3.10;;;;;;;15.86;72.57;101614.84;5100111;28;20052;-66
2022/10/28 03:38:39;;;;;;;9.70;3.50;;;;;;;15.84;72.51;101606.13;5085105;28;20057;-66
2022/10/28 03:41:08;;;;;;;10.82;3.80;;;;;;;15.83;72.52;101600.94;5084684;28;20055;-66
2022/10/28 03:43:35;;;;;;;10.73;3.10;;;;;;;15.83;72.69;101607.19;5084617;28;20059;-66
2022/10/28 03:46:03;;;;;;;9.05;3.30;;;;;;;15.83;72.49;101603.66;5091783;28;20063;-66
2022/10/28 03:48:31;;;;;;;9.27;4.07;;;;;;;15.81;72.46;101593.03;5084517;28;20060;-66
2022/10/28 03:50:58;;;;;;;11.50;3.63;;;;;;;15.82;72.57;101596.56;5084132;28;20052;-66
2022/10/28 03:53:26;;;;;;;8.43;3.05;;;;;;;15.80;72.62;101594.09;5087239;28;20051;-66
2022/10/28 03:55:59;;;;;;;8.80;3.38;;;;;;;15.75;72.36;101582.31;5085918;28;20048;-66
2022/10/28 03:58:29;;;;;;;12.60;3.83;;;;;;;15.79;72.49;101597.88;5084701;28;20055;-66
2022/10/28 04:00:56;;;;;;;6.68;3.28;;;;;;;15.78;72.53;101596.22;5083557;28;20052;-66
2022/10/28 04:03:25;;;;;;;7.22;2.92;;;;;;;15.79;72.57;101588.91;5084795;28;20117;-66
2022/10/28 04:05:53;;;;;;;8.52;3.42;;;;;;;15.77;72.51;101594.56;5087986;28;20054;-66
2022/10/28 04:08:21;;;;;;;10.02;3.75;;;;;;;15.78;72.57;101606.25;5084995;28;20053;-66
2022/10/28 04:10:49;;;;;;;6.85;3.28;;;;;;;15.67;72.50;101582.69;5084220;28;20108;-66
2022/10/28 04:13:17;;;;;;;11.60;3.38;;;;;;;15.78;72.45;101611.66;5094627;28;20051;-66
2022/10/28 04:15:46;;;;;;;7.30;3.28;;;;;;;15.77;72.48;101605.41;5083260;28;20052;-65
2022/10/28 04:18:14;;;;;;;6.07;2.92;;;;;;;15.76;72.44;101605.66;5087054;28;20493;-66
2022/10/28 04:20:41;;;;;;;10.50;3.60;;;;;;;15.76;72.33;101606.47;5083486;28;20061;-65
2022/10/28 04:23:14;;;;;;;6.28;3.13;;;;;;;15.76;72.34;101602.94;5084253;28;20078;-66
2022/10/28 04:25:42;;;;;;;10.02;3.30;;;;;;;15.76;72.49;101605.66;5083911;28;20048;-66
2022/10/28 04:28:10;;;;;;;5.93;3.28;;;;;;;15.73;72.37;101600.72;5084391;28;20079;-66
2022/10/28 04:30:37;;;;;;;9.32;3.80;;;;;;;15.75;72.34;101606.72;5083003;28;20044;-66
2022/10/28 04:33:06;;;;;;;10.60;3.95;;;;;;;15.75;72.34;101601.28;5084274;28;20059;-66
2022/10/28 04:35:34;;;;;;;7.63;3.05;;;;;;;15.75;72.37;101606.72;5085577;28;20055;-66
2022/10/28 04:38:02;;;;;;;7.70;3.75;;;;;;;15.75;72.49;101604.00;5088401;28;20055;-66
2022/10/28 04:40:29;;;;;;;10.07;3.03;;;;;;;15.74;72.18;101605.91;5094642;28;20052;-66
2022/10/28 04:42:57;;;;;;;6.70;3.20;;;;;;;15.73;72.35;101609.66;5088393;28;20048;-66
2022/10/28 04:45:25;;;;;;;8.30;3.05;;;;;;;15.72;72.33;101602.59;5095087;28;20085;-66
2022/10/28 04:47:57;;;;;;;6.50;3.17;;;;;;;15.72;72.32;101604.47;5088796;28;20056;-66
2022/10/28 04:50:27;;;;;;;7.32;3.25;;;;;;;15.71;72.32;101605.53;5087382;28;20065;-66
2022/10/28 04:52:54;;;;;;;5.82;2.88;;;;;;;15.72;72.31;101601.78;5088400;28;20078;-66
2022/10/28 04:55:23;;;;;;;7.47;2.85;;;;;;;15.71;72.22;101606.38;5092609;28;20070;-66
2022/10/28 04:57:55;;;;;;;8.55;3.30;;;;;;;15.71;72.27;101600.94;5089062;28;20498;-66
2022/10/28 05:00:22;;;;;;;8.50;3.35;;;;;;;15.70;72.41;101604.72;5091505;28;20049;-66
2022/10/28 05:02:50;;;;;;;9.27;4.00;;;;;;;15.70;72.29;101602.00;5087787;28;20056;-66
2022/10/28 05:05:18;;;;;;;7.32;3.60;;;;;;;15.70;72.08;101601.19;5086861;28;20052;-66
2022/10/28 05:07:47;;;;;;;5.32;2.63;;;;;;;15.70;72.12;101603.91;5088035;28;20049;-66
2022/10/28 05:10:16;;;;;;;7.78;3.28;;;;;;;15.67;72.25;101597.06;5087202;28;20067;-66
2022/10/28 05:12:45;;;;;;;7.45;2.65;;;;;;;15.67;72.13;101604.38;5087875;28;20052;-66
2022/10/28 05:15:14;;;;;;;6.97;2.88;;;;;;;15.67;72.17;101607.06;5090390;28;20048;-66
2022/10/28 05:17:43;;;;;;;7.97;3.15;;;;;;;15.67;72.11;101607.91;5087563;28;20386;-66
2022/10/28 05:20:12;;;;;;;7.47;3.30;;;;;;;15.65;72.05;101601.91;5086402;28;20379;-67
2022/10/28 05:22:46;;;;;;;8.52;3.63;;;;;;;15.62;72.01;101597.78;5087683;28;20048;-67
2022/10/28 05:25:14;;;;;;;7.78;3.15;;;;;;;15.65;72.19;101601.06;5087079;28;20072;-67
2022/10/28 05:27:42;;;;;;;8.43;3.05;;;;;;;15.64;72.14;101600.25;5087645;28;20044;-66
2022/10/28 05:30:11;;;;;;;7.22;3.00;;;;;;;15.63;72.06;101604.84;5086136;28;20052;-67
2022/10/28 05:32:39;;;;;;;5.43;2.88;;;;;;;15.63;72.15;101594.00;5105731;28;20062;-67
2022/10/28 05:35:07;;;;;;;8.07;3.30;;;;;;;15.63;72.01;101590.47;5106767;28;20115;-67
2022/10/28 05:37:35;;;;;;;9.45;3.50;;;;;;;15.61;72.07;101592.59;5092027;28;20049;-66
2022/10/28 05:40:05;;;;;;;7.50;3.30;;;;;;;15.61;72.15;101588.00;5086883;28;20045;-66
2022/10/28 05:42:32;;;;;;;14.52;3.83;;;;;;;15.61;72.21;101581.75;5087451;28;20045;-67
2022/10/28 05:45:00;;;;;;;10.43;3.67;;;;;;;15.60;72.10;101585.56;5090262;28;20036;-66
2022/10/28 05:47:28;;;;;;;7.15;2.95;;;;;;;15.59;72.21;101592.84;5091036;28;20048;-67
2022/10/28 05:49:55;;;;;;;7.43;3.88;;;;;;;15.59;72.17;101592.84;5086392;28;20052;-67
2022/10/28 05:52:23;;;;;;;7.80;3.50;;;;;;;15.58;72.03;101590.38;5086934;28;20053;-66
2022/10/28 05:54:51;;;;;;;11.15;3.15;;;;;;;15.58;72.17;101595.81;5091771;28;20044;-67
2022/10/28 05:57:20;;;;;;;6.15;2.92;;;;;;;15.59;72.23;101594.75;5087014;28;20056;-66
2022/10/28 05:59:47;;;;;;;7.00;3.08;;;;;;;15.58;72.07;101595.81;5085525;28;20048;-67
2022/10/28 06:02:15;;;;;;;6.90;2.97;;;;;;;15.57;72.23;101603.09;5086900;28;20067;-67
2022/10/28 06:04:43;;;;;;;6.80;3.25;;;;;;;15.57;72.13;101605.00;5085972;28;20047;-66
2022/10/28 06:07:10;;;;;;;6.38;3.30;;;;;;;15.56;72.03;101597.91;5086486;28;20132;-66
2022/10/28 06:09:38;;;;;;;8.45;3.22;;;;;;;15.57;72.14;101603.09;5086426;28;20055;-67
2022/10/28 06:12:07;;;;;;;7.30;3.63;;;;;;;15.57;72.05;101599.56;5086621;28;20052;-67
2022/10/28 06:14:36;;;;;;;9.05;3.40;;;;;;;15.55;72.03;101607.09;5089333;28;20054;-66
2022/10/28 06:17:03;;;;;;;5.32;2.70;;;;;;;15.56;72.14;101601.44;5086207;28;20052;-67
2022/10/28 06:19:31;;;;;;;12.70;4.78;;;;;;;15.55;72.09;101599.78;5085519;28;20502;-66
2022/10/28 06:21:59;;;;;;;11.80;3.78;;;;;;;15.55;72.25;101601.66;5085729;28;20048;-67
2022/10/28 06:24:26;;;;;;;7.13;3.40;;;;;;;15.54;72.15;101602.72;5085198;28;20402;-66
2022/10/28 06:26:54;;;;;;;7.57;3.20;;;;;;;15.54;71.95;101606.25;5086162;28;20079;-67
2022/10/28 06:29:22;;;;;;;3.90;2.50;;;;;;;15.53;72.05;101604.63;5092486;28;20531;-67
2022/10/28 06:31:51;;;;;;;7.55;3.80;;;;;;;15.52;72.25;101602.97;5099114;28;20421;-67
2022/10/28 06:34:19;;;;;;;10.88;3.60;;;;;;;15.53;71.98;101603.78;5085445;28;20382;-67
2022/10/28 06:36:47;;;;;;;5.93;2.85;;;;;;;15.52;72.11;101600.25;5085954;28;20048;-67
2022/10/28 06:39:15;;;;;;;9.40;3.20;;;;;;;15.52;72.22;101602.97;5085892;28;20135;-67
2022/10/28 06:41:43;;;;;;;5.45;2.90;;;;;;;15.51;72.16;101597.78;5085924;28;20121;-67
2022/10/28 06:44:10;;;;;;;8.18;3.13;;;;;;;15.51;71.97;101597.78;5085472;28;20045;-67
2022/10/28 06:46:38;;;;;;;9.23;3.30;;;;;;;15.51;72.24;101604.03;5095893;28;20055;-67
2022/10/28 06:49:07;;;;;;;7.72;3.08;;;;;;;15.51;72.17;101611.31;5085695;28;20056;-67
2022/10/28 06:51:35;;;;;;;7.82;3.65;;;;;;;15.50;72.35;101604.25;5085316;28;20056;-67
2022/10/28 06:54:03;;;;;;;7.97;3.22;;;;;;;15.49;72.27;101598.00;5091266;28;20044;-67
2022/10/28 06:56:31;;;;;;;6.10;3.20;;;;;;;15.49;72.19;101608.03;5085518;28;20155;-67
2022/10/28 06:58:58;;;;;;;9.10;3.78;;;;;;;15.48;72.29;101604.50;5084730;28;20166;-66
2022/10/28 07:01:26;;;;;;;10.52;3.20;;;;;;;15.49;72.11;101598.00;5084409;28;20063;-67
2022/10/28 07:03:54;;;;;;;8.02;3.13;;;;;;;15.48;72.01;101607.19;5085148;28;20086;-67
2022/10/28 07:06:23;;;;;;;9.68;3.95;;;;;;;15.48;72.08;101606.38;5084756;28;20405;-67
2022/10/28 07:08:51;;;;;;;8.40;3.83;;;;;;;15.48;72.13;101614.50;5088454;28;20045;-66
2022/10/28 07:11:19;;;;;;;7.50;3.08;;;;;;;15.48;72.22;101609.09;5084809;28;20055;-67
2022/10/28 07:13:46;;;;;;;4.80;3.03;;;;;;;15.48;72.03;101611.78;5087444;28;20164;-66
2022/10/28 07:16:15;;;;;;;5.72;2.97;;;;;;;15.43;72.05;101598.97;5083950;28;20052;-67
2022/10/28 07:18:43;;;;;;;7.88;3.47;;;;;;;15.46;72.13;101614.75;5095959;28;20055;-67
2022/10/28 07:21:11;;;;;;;8.35;3.33;;;;;;;15.46;72.00;101617.44;5084612;28;20055;-67
2022/10/28 07:23:40;;;;;;;5.65;3.33;;;;;;;15.48;72.22;101614.50;5085300;28;20044;-67
2022/10/28 07:26:07;;;;;;;6.65;3.25;;;;;;;15.46;72.12;101619.34;5084684;28;20055;-67
2022/10/28 07:28:35;;;;;;;14.30;4.25;;;;;;;15.47;72.13;101621.81;5085141;28;20080;-67
2022/10/28 07:31:03;;;;;;;6.20;3.08;;;;;;;15.46;71.99;101624.75;5083997;28;20053;-67
2022/10/28 07:33:31;;;;;;;11.40;3.38;;;;;;;15.47;71.95;101629.94;5084947;28;20059;-67
2022/10/28 07:35:59;;;;;;;11.70;4.07;;;;;;;15.47;72.03;101631.81;5084503;28;20386;-67
2022/10/28 07:38:27;;;;;;;7.18;3.60;;;;;;;15.47;72.02;101627.22;5085161;28;20581;-67
2022/10/28 07:40:56;;;;;;;8.40;3.15;;;;;;;15.48;72.01;101625.34;5084852;28;20060;-67
2022/10/28 07:43:23;;;;;;;10.73;4.15;;;;;;;15.48;72.05;101623.47;5084843;28;20052;-67
2022/10/28 07:45:55;;;;;;;9.23;3.67;;;;;;;15.49;72.05;101619.69;5094300;28;20048;-67
2022/10/28 07:48:23;;;;;;;10.35;4.65;;;;;;;15.48;72.06;101600.97;5105079;28;20138;-67
2022/10/28 07:50:51;;;;;;;9.88;3.45;;;;;;;15.50;72.02;101609.69;5096451;28;20485;-67
2022/10/28 07:53:18;;;;;;;9.40;3.75;;;;;;;15.48;72.11;101601.78;5087186;28;20490;-67
2022/10/28 07:55:56;;;;;;;11.40;4.30;;;;;;;15.50;72.02;101601.53;5086208;28;20059;-67
2022/10/28 07:58:24;;;;;;;6.65;3.72;;;;;;;15.49;71.99;101602.59;5084938;28;20051;-66
2022/10/28 08:00:52;;;;;;;14.75;4.60;;;;;;;15.49;72.00;101608.84;5083367;28;20056;-66
2022/10/28 08:03:21;;;;;;;9.15;3.70;;;;;;;15.51;72.02;101611.31;5084850;28;20127;-67
2022/10/28 08:05:49;;;;;;;8.25;3.78;;;;;;;15.51;72.24;101611.31;5084203;28;20107;-67
2022/10/28 08:08:16;;;;;;;7.82;3.75;;;;;;;15.53;72.14;101614.63;5084816;28;20063;-67
2022/10/28 08:10:44;;;;;;;10.45;3.88;;;;;;;15.53;72.11;101615.44;5088442;28;20044;-66
2022/10/28 08:13:13;;;;;;;8.10;3.60;;;;;;;15.53;72.03;101617.34;5090046;28;20052;-67
2022/10/28 08:15:41;;;;;;;10.45;3.50;;;;;;;15.52;72.11;101611.09;5087437;28;20063;-66
2022/10/28 08:18:08;;;;;;;12.73;3.42;;;;;;;15.55;72.28;101621.47;5088526;28;20052;-66
2022/10/28 08:20:36;;;;;;;10.70;4.65;;;;;;;15.56;72.29;101623.09;5088016;28;20048;-67
2022/10/28 08:23:04;;;;;;;10.15;4.32;;;;;;;15.57;72.49;101632.91;5088820;28;20048;-67
2022/10/28 08:25:34;;;;;;;9.25;3.80;;;;;;;15.58;72.69;101631.84;5087980;28;20048;-67
2022/10/28 08:28:01;;;;;;;9.27;3.53;;;;;;;15.59;72.56;101636.22;5088708;28;20048;-67
2022/10/28 08:30:31;;;;;;;12.40;3.45;;;;;;;15.59;72.70;101628.09;5087249;28;20058;-66
2022/10/28 08:33:11;;;;;;;14.05;4.32;;;;;;;15.60;72.73;101635.13;5088590;28;20053;-66
2022/10/28 08:35:39;;;;;;;10.52;4.30;;;;;;;15.61;72.83;101630.53;5087587;28;20056;-66
2022/10/28 08:38:06;;;;;;;12.38;4.50;;;;;;;15.61;72.82;101631.34;5098363;28;20502;-66
2022/10/28 08:40:43;;;;;;;10.45;3.58;;;;;;;15.61;72.93;101630.53;5094611;28;20466;-66
2022/10/28 08:43:18;;;;;;;;;;;;;;;15.63;72.93;101629.22;5101824;28;20045;-66
2022/10/28 08:46:13;;;;;;;6.72;3.75;;;;;;;15.63;72.70;101626.53;5095802;28;19925;-67
2022/10/28 08:48:42;;;;;;;9.90;4.33;;;;;;;15.66;72.96;101622.50;5098516;28;20079;-67
2022/10/28 08:51:14;;;;;;;11.80;4.30;;;;;;;15.67;73.07;101623.34;5101213;28;20098;-66
2022/10/28 08:53:47;;;;;;;11.45;3.97;;;;;;;15.67;73.22;101613.31;5099348;28;20344;-66
2022/10/28 08:56:22;;;;;;;10.02;3.78;;;;;;;15.68;73.21;101617.69;5108038;28;20111;-66
2022/10/28 08:58:53;;;;;;;9.40;3.78;;;;;;;15.69;73.27;101623.94;5108265;28;20055;-66
2022/10/28 09:01:35;;;;;;;12.95;3.95;;;;;;;15.70;73.20;101615.56;5107420;28;20058;-66
2022/10/28 09:04:07;;;;;;;12.43;3.60;;;;;;;15.71;73.41;101630.75;5100899;28;20117;-66
2022/10/28 09:06:34;;;;;;;15.65;4.70;;;;;;;15.71;73.50;101628.03;5087282;28;20397;-66
2022/10/28 09:09:02;;;;;;;7.88;3.47;;;;;;;15.72;73.37;101626.16;5087777;28;20048;-66
2022/10/28 09:11:51;;;;;;;11.35;4.00;;;;;;;15.76;73.43;101635.47;5087419;28;20044;-66
2022/10/28 09:14:36;;;;;;;7.45;3.42;;;;;;;15.76;73.37;101635.47;5098102;28;20060;-66
2022/10/28 09:17:16;;;;;;;6.30;3.40;;;;;;;15.78;73.50;101636.06;5100335;28;20054;-67
2022/10/28 09:19:48;;;;;;;11.18;4.60;;;;;;;15.78;73.35;101634.16;5086484;28;20052;-67
2022/10/28 09:22:23;;;;;;;11.32;4.20;;;;;;;15.82;73.41;101637.22;5096733;28;20403;-66
2022/10/28 09:24:53;;;;;;;11.38;4.00;;;;;;;15.83;73.52;101645.13;5090192;28;20048;-67
2022/10/28 09:27:44;;;;;;;11.13;3.38;;;;;;;15.84;73.49;101645.94;5087532;28;20048;-66
2022/10/28 09:30:26;;;;;;;11.13;4.00;;;;;;;15.87;73.62;101645.47;5086001;28;20060;-66
2022/10/28 09:33:07;;;;;;;9.85;4.43;;;;;;;15.88;73.71;101639.81;5087471;28;20104;-66
2022/10/28 09:35:40;;;;;;;10.60;4.05;;;;;;;15.89;73.67;101646.88;5086436;28;20052;-66
2022/10/28 09:38:18;;;;;;;10.32;4.00;;;;;;;15.91;73.95;101639.34;5095522;28;20044;-67
2022/10/28 09:40:52;;;;;;;9.73;4.03;;;;;;;15.99;73.85;101656.31;5087594;28;20054;-66
2022/10/28 09:43:25;;;;;;;13.73;5.35;;;;;;;16.06;73.97;101651.59;4356614;28;10001233;-65
2022/10/28 09:45:57;;;;;;;7.80;3.83;;;;;;;16.13;73.82;101650.38;5053873;28;20041;-66
2022/10/28 09:48:29;;;;;;;12.32;4.40;;;;;;;16.16;73.43;101641.78;5047807;28;20049;-66
2022/10/28 09:50:58;;;;;;;10.68;3.78;;;;;;;16.19;73.91;101641.28;5060801;28;20132;-64
2022/10/28 09:53:38;;;;;;;10.32;4.22;;;;;;;16.26;73.85;101633.03;5060453;28;20049;-66
2022/10/28 09:56:06;;;;;;;14.18;4.38;;;;;;;16.28;73.42;101636.31;5060313;28;20513;-65
2022/10/28 09:58:36;;;;;;;14.70;4.18;;;;;;;16.23;73.53;101642.47;5073842;28;20053;-66
2022/10/28 10:01:04;;;;;;;7.00;3.67;;;;;;;16.23;73.83;101645.19;5065135;28;20049;-65
2022/10/28 10:03:33;;;;;;;10.23;4.22;;;;;;;16.24;73.86;101659.56;5056096;28;20658;-65
2022/10/28 10:06:09;;;;;;;11.13;4.28;;;;;;;16.27;73.87;101659.91;5055192;28;20048;-66
2022/10/28 10:08:39;;;;;;;8.95;3.45;;;;;;;16.35;73.69;101652.47;5064603;28;20068;-65
2022/10/28 10:11:14;;;;;;;11.30;3.70;;;;;;;16.38;74.00;101647.38;5060079;28;20053;-67
2022/10/28 10:13:43;;;;;;;12.07;4.50;;;;;;;16.38;73.66;101655.50;5058660;28;20049;-68
2022/10/28 10:16:17;;;;;;;17.27;4.50;;;;;;;16.51;74.79;101655.22;5056284;28;20049;-67
2022/10/28 10:18:51;;;;;;;13.63;3.90;;;;;;;16.51;73.96;101662.56;5058529;28;20506;-67
2022/10/28 10:21:44;;;;;;;11.48;3.67;;;;;;;16.51;74.30;101655.22;5078504;28;20050;-67
2022/10/28 10:24:32;;;;;;;15.63;4.43;;;;;;;16.59;74.76;101654.03;5095284;28;20048;-67
2022/10/28 10:27:02;;;;;;;14.50;4.00;;;;;;;16.59;74.70;101651.31;5094709;28;20055;-68
2022/10/28 10:29:31;;;;;;;10.55;4.13;;;;;;;16.60;73.88;101650.25;5092269;28;20396;-66
2022/10/28 10:32:08;;;;;;;11.13;3.50;;;;;;;16.58;74.34;101650.50;5090588;28;20044;-66
2022/10/28 10:34:36;;;;;;;18.25;4.00;;;;;;;16.58;74.23;101652.38;5092809;28;20044;-67
2022/10/28 10:37:05;;;;;;;10.15;3.72;;;;;;;16.68;75.09;101635.50;5097940;28;20116;-66
2022/10/28 10:39:36;;;;;;;18.00;5.13;;;;;;;16.64;74.82;101635.13;5093868;28;20040;-66
2022/10/28 10:42:15;;;;;;;11.57;4.30;;;;;;;16.63;74.53;101636.19;5097804;28;20135;-67
2022/10/28 10:44:43;;;;;;;11.40;3.67;;;;;;;16.63;74.69;101640.78;5094445;28;20067;-68
2022/10/28 10:47:18;;;;;;;12.38;3.88;;;;;;;16.64;74.71;101632.41;5096910;28;20112;-67
2022/10/28 10:49:48;;;;;;;11.65;3.50;;;;;;;16.64;74.70;101624.28;5093715;28;20249;-68
2022/10/28 10:52:21;;;;;;;11.15;4.88;;;;;;;16.72;75.15;101629.34;5090924;28;20048;-66
2022/10/28 10:54:59;;;;;;;18.02;4.70;;;;;;;16.86;75.00;101627.97;5097081;28;20048;-67
2022/10/28 10:57:27;;;;;;;11.52;3.85;;;;;;;16.94;74.92;101621.31;5088808;28;20048;-66
2022/10/28 10:59:56;;;;;;;20.70;4.57;;;;;;;16.98;74.63;101619.75;5090677;28;20040;-67
2022/10/28 11:02:27;;;;;;;13.13;4.57;;;;;;;17.03;74.38;101627.16;5086928;28;20234;-67
2022/10/28 11:04:59;;;;;;;11.27;4.30;;;;;;;16.92;74.60;101624.28;5094869;28;20134;-67
2022/10/28 11:07:29;;;;;;;10.15;4.57;;;;;;;16.99;74.79;101624.13;5090485;28;20045;-66
2022/10/28 11:09:57;;;;;;;13.18;3.92;;;;;;;16.99;74.72;101631.44;5094209;28;20115;-67
2022/10/28 11:12:29;;;;;;;12.98;4.80;;;;;;;17.03;74.64;101619.03;5090494;28;20045;-66
2022/10/28 11:14:58;;;;;;;13.93;4.13;;;;;;;17.05;74.71;101614.16;5084885;28;20057;-66
2022/10/28 11:17:28;;;;;;;19.35;5.05;;;;;;;17.06;74.60;101607.66;4737768;28;9999835;-67
2022/10/28 11:19:58;;;;;;;14.82;4.18;;;;;;;17.12;74.42;101612.94;5088356;28;20070;-66
2022/10/28 11:22:40;;;;;;;11.18;4.60;;;;;;;17.21;74.31;101614.16;5086173;28;20051;-67
2022/10/28 11:25:27;;;;;;;9.95;3.97;;;;;;;17.13;74.66;101611.03;5085143;28;20063;-67
2022/10/28 11:28:06;;;;;;;22.13;4.15;;;;;;;17.15;74.46;101612.44;5084422;28;20045;-67
2022/10/28 11:30:45;;;;;;;12.43;4.13;;;;;;;17.16;74.68;101616.81;5084884;28;20040;-67
2022/10/28 11:33:16;;;;;;;13.70;4.38;;;;;;;17.19;74.54;101610.88;5083136;28;20471;-66
2022/10/28 11:36:14;;;;;;;11.57;3.63;;;;;;;17.26;74.53;101618.03;5080284;28;20048;-66
2022/10/28 11:39:17;;;;;;;11.32;3.47;;;;;;;17.23;74.69;101613.91;5084707;28;20053;-67
2022/10/28 11:41:55;;;;;;;13.75;4.35;;;;;;;17.23;74.41;101617.47;5085580;28;20055;-67